createdAt,value
2018-09-09T00:00:45.412Z,15.20
2018-09-09T00:03:13.843Z,15.30
2018-09-09T00:05:42.256Z,15.20
2018-09-09T00:08:10.894Z,15.20
2018-09-09T00:10:39.608Z,15.20
2018-09-09T00:13:08.056Z,15.20
2018-09-09T00:15:36.621Z,15.20
2018-09-09T00:18:05.343Z,15.20
2018-09-09T00:20:33.847Z,15.10
2018-09-09T00:23:02.286Z,15.10
2018-09-09T00:25:30.714Z,15.10
2018-09-09T00:27:59.145Z,15.10
2018-09-09T00:30:27.598Z,15.20
2018-09-09T00:32:56.062Z,15.10
2018-09-09T00:35:24.476Z,15.10
2018-09-09T00:37:52.892Z,15.10
2018-09-09T00:40:21.330Z,15.10
2018-09-09T00:42:49.746Z,15.10
2018-09-09T00:45:18.209Z,15.10
2018-09-09T00:47:46.749Z,15.10
2018-09-09T00:50:20.623Z,15.10
2018-09-09T00:52:54.277Z,15.10
2018-09-09T00:55:22.776Z,15.10
2018-09-09T00:57:51.250Z,15.10
2018-09-09T01:00:24.032Z,15.10
2018-09-09T01:02:52.470Z,15.10
2018-09-09T01:05:20.904Z,15.00
2018-09-09T01:07:49.439Z,15.00
2018-09-09T01:10:17.894Z,15.00
2018-09-09T01:12:46.298Z,15.00
2018-09-09T01:15:14.785Z,14.90
2018-09-09T01:17:43.257Z,14.90
2018-09-09T01:20:11.715Z,14.90
2018-09-09T01:22:40.156Z,15.00
2018-09-09T01:25:08.687Z,15.00
2018-09-09T01:27:37.141Z,15.00
2018-09-09T01:30:05.847Z,15.00
2018-09-09T01:32:34.338Z,15.00
2018-09-09T01:35:02.764Z,15.00
2018-09-09T01:37:31.199Z,15.00
2018-09-09T01:39:59.784Z,15.00
2018-09-09T01:42:28.227Z,15.00
2018-09-09T01:44:56.846Z,15.00
2018-09-09T01:47:25.631Z,15.00
2018-09-09T01:49:54.217Z,15.00
2018-09-09T01:52:22.740Z,15.00
2018-09-09T01:54:51.288Z,14.90
2018-09-09T01:57:19.738Z,14.90
2018-09-09T01:59:48.163Z,14.90
2018-09-09T02:02:16.712Z,14.90
2018-09-09T02:04:45.158Z,14.90
2018-09-09T02:07:13.828Z,14.80
2018-09-09T02:09:42.282Z,14.80
2018-09-09T02:12:10.709Z,14.80
2018-09-09T02:14:39.247Z,14.80
2018-09-09T02:17:07.680Z,14.70
2018-09-09T02:19:36.306Z,14.70
2018-09-09T02:22:04.880Z,14.70
2018-09-09T02:24:33.335Z,14.70
2018-09-09T02:27:01.816Z,14.70
2018-09-09T02:29:30.251Z,14.70
2018-09-09T02:31:58.795Z,14.70
2018-09-09T02:34:27.329Z,14.70
2018-09-09T02:36:55.806Z,14.70
2018-09-09T02:39:24.364Z,14.70
2018-09-09T02:41:52.930Z,14.70
2018-09-09T02:44:21.404Z,14.70
2018-09-09T02:46:49.912Z,14.70
2018-09-09T02:49:18.334Z,14.70
2018-09-09T02:51:46.769Z,14.70
2018-09-09T02:54:15.206Z,14.70
2018-09-09T02:56:43.632Z,14.70
2018-09-09T02:59:12.136Z,14.70
2018-09-09T03:01:40.638Z,14.70
2018-09-09T03:04:09.070Z,14.70
2018-09-09T03:06:37.596Z,14.70
2018-09-09T03:09:06.601Z,14.70
2018-09-09T03:11:35.030Z,14.70
2018-09-09T03:14:03.457Z,14.70
2018-09-09T03:16:31.910Z,14.70
2018-09-09T03:19:00.327Z,14.70
2018-09-09T03:21:28.765Z,14.70
2018-09-09T03:23:57.182Z,14.70
2018-09-09T03:26:25.662Z,14.70
2018-09-09T03:28:54.111Z,14.70
2018-09-09T03:31:22.610Z,14.70
2018-09-09T03:33:51.158Z,14.70
2018-09-09T03:36:19.686Z,14.60
2018-09-09T03:38:48.165Z,14.70
2018-09-09T03:41:16.693Z,14.70
2018-09-09T03:43:45.146Z,14.60
2018-09-09T03:46:13.589Z,14.70
2018-09-09T03:48:42.094Z,14.60
2018-09-09T03:51:10.560Z,14.60
2018-09-09T03:53:39.002Z,14.60
2018-09-09T03:56:07.486Z,14.60
2018-09-09T03:58:36.023Z,14.60
2018-09-09T04:01:04.466Z,14.60
2018-09-09T04:03:32.949Z,14.60
2018-09-09T04:06:01.420Z,14.60
2018-09-09T04:08:29.884Z,14.60
2018-09-09T04:10:58.373Z,14.60
2018-09-09T04:13:26.873Z,14.60
2018-09-09T04:15:55.366Z,14.60
2018-09-09T04:18:23.797Z,14.60
2018-09-09T04:20:52.244Z,14.60
2018-09-09T04:23:20.809Z,14.50
2018-09-09T04:25:49.233Z,14.50
2018-09-09T04:28:17.670Z,14.50
2018-09-09T04:30:46.296Z,14.40
2018-09-09T04:33:14.734Z,14.40
2018-09-09T04:35:43.188Z,14.40
2018-09-09T04:38:11.656Z,14.40
2018-09-09T04:40:40.119Z,14.40
2018-09-09T04:43:08.597Z,14.40
2018-09-09T04:45:37.057Z,14.40
2018-09-09T04:48:05.614Z,14.40
2018-09-09T04:50:34.149Z,14.40
2018-09-09T04:53:02.595Z,14.40
2018-09-09T04:55:31.056Z,14.50
2018-09-09T04:57:59.638Z,14.40
2018-09-09T05:00:28.068Z,14.40
2018-09-09T05:02:56.524Z,14.50
2018-09-09T05:05:24.976Z,14.50
2018-09-09T05:07:53.419Z,14.50
2018-09-09T05:10:21.852Z,14.50
2018-09-09T05:12:50.571Z,14.50
2018-09-09T05:15:19.034Z,14.50
2018-09-09T05:17:47.467Z,14.50
2018-09-09T05:20:16.001Z,14.50
2018-09-09T05:22:44.568Z,14.50
2018-09-09T05:25:13.011Z,14.60
2018-09-09T05:27:41.452Z,14.60
2018-09-09T05:30:09.959Z,14.60
2018-09-09T05:32:38.418Z,14.60
2018-09-09T05:35:06.952Z,14.60
2018-09-09T05:37:35.404Z,14.60
2018-09-09T05:40:03.894Z,14.60
2018-09-09T05:42:32.450Z,14.60
2018-09-09T05:45:00.893Z,14.60
2018-09-09T05:47:29.411Z,14.60
2018-09-09T05:49:57.856Z,14.60
2018-09-09T05:52:26.461Z,14.50
2018-09-09T05:54:54.919Z,14.60
2018-09-09T05:57:23.472Z,14.50
2018-09-09T05:59:51.942Z,14.60
2018-09-09T06:02:20.366Z,14.60
2018-09-09T06:04:48.995Z,14.60
2018-09-09T06:07:17.429Z,14.60
2018-09-09T06:09:46.246Z,14.60
2018-09-09T06:12:14.681Z,14.70
2018-09-09T06:14:43.143Z,14.70
2018-09-09T06:17:11.677Z,14.70
2018-09-09T06:19:40.131Z,14.80
2018-09-09T06:22:08.714Z,14.80
2018-09-09T06:24:37.152Z,14.80
2018-09-09T06:27:05.761Z,14.90
2018-09-09T06:29:34.188Z,14.90
2018-09-09T06:32:02.621Z,14.90
2018-09-09T06:34:31.164Z,15.00
2018-09-09T06:36:59.588Z,15.00
2018-09-09T06:39:28.015Z,15.10
2018-09-09T06:41:56.529Z,15.10
2018-09-09T06:44:24.985Z,15.20
2018-09-09T06:46:53.427Z,15.20
2018-09-09T06:49:22.014Z,15.30
2018-09-09T06:51:50.776Z,15.30
2018-09-09T06:54:20.107Z,15.30
2018-09-09T06:56:48.666Z,15.40
2018-09-09T06:59:17.113Z,15.40
2018-09-09T07:01:45.564Z,15.40
2018-09-09T07:04:14.113Z,15.50
2018-09-09T07:06:42.559Z,15.50
2018-09-09T07:09:11.078Z,15.60
2018-09-09T07:11:39.851Z,15.70
2018-09-09T07:14:08.444Z,15.70
2018-09-09T07:16:36.914Z,15.90
2018-09-09T07:19:05.456Z,16.00
2018-09-09T07:21:33.860Z,16.00
2018-09-09T07:24:02.431Z,16.10
2018-09-09T07:26:31.005Z,16.20
2018-09-09T07:28:59.457Z,16.20
2018-09-09T07:31:27.900Z,16.20
2018-09-09T07:33:56.350Z,16.30
2018-09-09T07:36:24.770Z,16.30
2018-09-09T07:38:53.235Z,16.50
2018-09-09T07:41:21.692Z,16.50
2018-09-09T07:43:50.146Z,16.70
2018-09-09T07:46:18.712Z,16.80
2018-09-09T07:48:47.181Z,16.90
2018-09-09T07:51:15.618Z,17.00
2018-09-09T07:53:44.032Z,17.10
2018-09-09T07:56:12.457Z,17.10
2018-09-09T07:58:40.922Z,17.20
2018-09-09T08:01:09.495Z,17.20
2018-09-09T08:03:37.999Z,17.20
2018-09-09T08:06:06.532Z,17.20
2018-09-09T08:08:34.953Z,17.20
2018-09-09T08:11:03.453Z,17.20
2018-09-09T08:13:31.946Z,17.20
2018-09-09T08:16:00.396Z,17.30
2018-09-09T08:18:29.028Z,17.40
2018-09-09T08:20:57.526Z,17.60
2018-09-09T08:23:26.300Z,17.70
2018-09-09T08:25:54.717Z,17.90
2018-09-09T08:28:23.163Z,18.10
2018-09-09T08:30:51.679Z,18.30
2018-09-09T08:33:20.143Z,18.50
2018-09-09T08:35:48.879Z,18.60
2018-09-09T08:38:17.295Z,18.80
2018-09-09T08:40:45.942Z,18.90
2018-09-09T08:43:14.408Z,19.10
2018-09-09T08:45:42.842Z,19.20
2018-09-09T08:48:11.403Z,19.40
2018-09-09T08:50:39.947Z,19.60
2018-09-09T08:53:08.529Z,19.70
2018-09-09T08:55:37.001Z,19.70
2018-09-09T08:58:05.581Z,19.80
2018-09-09T09:00:34.157Z,19.80
2018-09-09T09:03:02.604Z,19.80
2018-09-09T09:05:31.141Z,19.90
2018-09-09T09:07:59.695Z,19.90
2018-09-09T09:10:28.113Z,20.10
2018-09-09T09:12:56.569Z,20.30
2018-09-09T09:15:25.122Z,20.40
2018-09-09T09:17:53.711Z,20.50
2018-09-09T09:20:22.215Z,20.60
2018-09-09T09:22:50.650Z,20.70
2018-09-09T09:25:19.141Z,20.70
2018-09-09T09:27:47.713Z,20.90
2018-09-09T09:30:16.387Z,20.90
2018-09-09T09:32:46.326Z,21.00
2018-09-09T09:35:14.884Z,20.90
2018-09-09T09:37:43.349Z,21.00
2018-09-09T09:40:11.810Z,21.20
2018-09-09T09:42:40.300Z,21.40
2018-09-09T09:45:08.876Z,21.60
2018-09-09T09:47:37.344Z,21.60
2018-09-09T09:50:05.977Z,21.70
2018-09-09T09:52:34.412Z,21.60
2018-09-09T09:55:03.248Z,21.60
2018-09-09T09:57:31.761Z,21.60
2018-09-09T10:00:00.284Z,21.60
2018-09-09T10:02:28.768Z,21.60
2018-09-09T10:04:57.404Z,21.70
2018-09-09T10:07:25.820Z,21.80
2018-09-09T10:09:54.337Z,22.00
2018-09-09T10:12:22.794Z,22.20
2018-09-09T10:14:51.228Z,22.50
2018-09-09T10:17:19.692Z,22.60
2018-09-09T10:19:48.189Z,22.70
2018-09-09T10:22:16.759Z,22.80
2018-09-09T10:24:45.201Z,22.90
2018-09-09T10:27:13.642Z,22.90
2018-09-09T10:29:42.145Z,23.00
2018-09-09T10:32:10.666Z,23.00
2018-09-09T10:34:39.202Z,23.10
2018-09-09T10:37:07.676Z,23.20
2018-09-09T10:39:36.171Z,23.20
2018-09-09T10:42:04.633Z,23.00
2018-09-09T10:44:33.066Z,23.00
2018-09-09T10:47:01.534Z,22.90
2018-09-09T10:49:29.980Z,23.00
2018-09-09T10:51:58.445Z,23.30
2018-09-09T10:54:26.986Z,23.60
2018-09-09T10:56:55.482Z,23.60
2018-09-09T10:59:24.208Z,23.60
2018-09-09T11:01:52.786Z,23.60
2018-09-09T11:04:21.230Z,23.60
2018-09-09T11:06:49.784Z,23.70
2018-09-09T11:09:18.210Z,23.70
2018-09-09T11:11:46.677Z,23.70
2018-09-09T11:14:15.181Z,23.50
2018-09-09T11:16:43.629Z,23.50
2018-09-09T11:19:12.188Z,23.50
2018-09-09T11:21:40.820Z,23.50
2018-09-09T11:24:09.341Z,23.30
2018-09-09T11:26:37.828Z,23.30
2018-09-09T11:29:06.364Z,23.30
2018-09-09T11:31:34.911Z,23.70
2018-09-09T11:34:03.539Z,23.90
2018-09-09T11:36:32.092Z,23.90
2018-09-09T11:39:00.704Z,23.80
2018-09-09T11:41:29.182Z,24.00
2018-09-09T11:44:03.029Z,24.00
2018-09-09T11:46:32.312Z,24.10
2018-09-09T11:49:00.933Z,24.20
2018-09-09T11:51:29.406Z,24.30
2018-09-09T11:53:57.979Z,24.40
2018-09-09T11:56:26.876Z,24.40
2018-09-09T11:58:55.430Z,24.30
2018-09-09T12:01:23.933Z,24.30
2018-09-09T12:03:52.451Z,24.20
2018-09-09T12:06:20.998Z,24.20
2018-09-09T12:08:49.701Z,24.20
2018-09-09T12:11:18.151Z,24.20
2018-09-09T12:13:46.708Z,24.30
2018-09-09T12:16:15.229Z,24.20
2018-09-09T12:18:47.919Z,24.20
2018-09-09T12:21:16.390Z,24.20
2018-09-09T12:23:44.836Z,24.10
2018-09-09T12:26:13.364Z,24.00
2018-09-09T12:28:41.821Z,24.00
2018-09-09T12:31:10.406Z,24.10
2018-09-09T12:33:38.996Z,24.20
2018-09-09T12:36:08.292Z,24.30
2018-09-09T12:38:36.841Z,24.50
2018-09-09T12:41:05.603Z,24.60
2018-09-09T12:43:39.535Z,24.80
2018-09-09T12:46:13.529Z,24.90
2018-09-09T12:48:47.528Z,25.00
2018-09-09T12:51:16.306Z,25.10
2018-09-09T12:53:44.897Z,25.10
2018-09-09T12:56:13.449Z,25.00
2018-09-09T12:58:41.935Z,25.20
2018-09-09T13:01:10.403Z,25.30
2018-09-09T13:03:38.881Z,25.30
2018-09-09T13:06:07.411Z,25.10
2018-09-09T13:08:35.919Z,25.30
2018-09-09T13:11:04.527Z,25.30
2018-09-09T13:13:32.994Z,25.20
2018-09-09T13:16:01.460Z,25.10
2018-09-09T13:18:30.078Z,25.00
2018-09-09T13:20:58.610Z,25.00
2018-09-09T13:23:27.166Z,24.90
2018-09-09T13:25:55.598Z,25.00
2018-09-09T13:28:24.078Z,25.00
2018-09-09T13:30:52.617Z,25.10
2018-09-09T13:33:21.220Z,25.10
2018-09-09T13:35:49.740Z,25.10
2018-09-09T13:38:18.203Z,25.10
2018-09-09T13:40:46.759Z,25.20
2018-09-09T13:43:15.238Z,25.40
2018-09-09T13:45:44.052Z,25.40
2018-09-09T13:48:12.638Z,25.30
2018-09-09T13:50:41.244Z,25.30
2018-09-09T13:53:09.731Z,25.10
2018-09-09T13:55:38.243Z,25.10
2018-09-09T13:58:06.850Z,25.10
2018-09-09T14:00:35.430Z,25.10
2018-09-09T14:03:04.214Z,25.10
2018-09-09T14:05:32.817Z,25.20
2018-09-09T14:08:01.249Z,25.20
2018-09-09T14:10:29.806Z,25.30
2018-09-09T14:12:58.776Z,25.50
2018-09-09T14:15:27.571Z,25.50
2018-09-09T14:17:55.997Z,25.60
2018-09-09T14:20:24.486Z,25.70
2018-09-09T14:22:52.984Z,25.80
2018-09-09T14:25:21.492Z,25.90
2018-09-09T14:27:50.122Z,26.00
2018-09-09T14:30:18.602Z,26.00
2018-09-09T14:32:47.211Z,26.10
2018-09-09T14:35:15.718Z,26.10
2018-09-09T14:37:45.714Z,26.10
2018-09-09T14:40:18.168Z,26.00
2018-09-09T14:42:46.742Z,25.90
2018-09-09T14:45:15.288Z,25.70
2018-09-09T14:47:43.751Z,25.70
2018-09-09T14:50:12.250Z,25.60
2018-09-09T14:52:40.706Z,25.60
2018-09-09T14:55:09.190Z,25.70
2018-09-09T14:57:37.784Z,25.60
2018-09-09T15:00:06.340Z,25.60
2018-09-09T15:02:34.815Z,25.60
2018-09-09T15:05:03.395Z,25.40
2018-09-09T15:07:31.879Z,25.20
2018-09-09T15:10:00.537Z,25.10
2018-09-09T15:12:29.111Z,25.00
2018-09-09T15:14:57.642Z,25.00
2018-09-09T15:17:26.174Z,24.90
2018-09-09T15:19:54.759Z,24.90
2018-09-09T15:22:23.213Z,24.90
2018-09-09T15:24:51.818Z,24.90
2018-09-09T15:27:20.277Z,25.00
2018-09-09T15:29:48.715Z,25.00
2018-09-09T15:32:17.275Z,25.10
2018-09-09T15:34:45.785Z,25.10
2018-09-09T15:37:14.341Z,25.10
2018-09-09T15:39:42.811Z,25.10
2018-09-09T15:42:11.284Z,25.10
2018-09-09T15:44:39.756Z,25.10
2018-09-09T15:47:08.335Z,25.00
2018-09-09T15:49:36.798Z,25.00
2018-09-09T15:52:05.465Z,25.00
2018-09-09T15:54:33.913Z,24.90
2018-09-09T15:57:02.372Z,24.90
2018-09-09T15:59:30.978Z,24.90
2018-09-09T16:02:02.208Z,25.00
2018-09-09T16:04:30.702Z,24.90
2018-09-09T16:07:00.426Z,24.90
2018-09-09T16:09:28.930Z,24.90
2018-09-09T16:11:57.402Z,24.90
2018-09-09T16:14:25.871Z,24.80
2018-09-09T16:16:54.452Z,24.80
2018-09-09T16:19:22.908Z,24.80
2018-09-09T16:21:51.426Z,24.80
2018-09-09T16:24:19.972Z,24.80
2018-09-09T16:26:48.491Z,24.70
2018-09-09T16:29:17.147Z,24.70
2018-09-09T16:31:45.609Z,24.70
2018-09-09T16:34:14.212Z,24.60
2018-09-09T16:36:42.672Z,24.60
2018-09-09T16:39:11.257Z,24.50
2018-09-09T16:41:39.789Z,24.50
2018-09-09T16:44:08.389Z,24.40
2018-09-09T16:46:36.929Z,24.40
2018-09-09T16:49:05.405Z,24.30
2018-09-09T16:51:33.936Z,24.20
2018-09-09T16:54:02.474Z,24.10
2018-09-09T16:56:30.944Z,24.00
2018-09-09T16:58:59.412Z,24.00
2018-09-09T17:01:28.161Z,24.00
2018-09-09T17:03:56.628Z,23.90
2018-09-09T17:06:25.096Z,23.80
2018-09-09T17:08:53.556Z,23.80
2018-09-09T17:11:22.162Z,23.70
2018-09-09T17:13:50.764Z,23.70
2018-09-09T17:16:19.228Z,23.70
2018-09-09T17:18:47.793Z,23.60
2018-09-09T17:21:16.363Z,23.60
2018-09-09T17:23:44.964Z,23.50
2018-09-09T17:26:13.404Z,23.50
2018-09-09T17:28:41.834Z,23.40
2018-09-09T17:31:10.338Z,23.30
2018-09-09T17:33:38.896Z,23.30
2018-09-09T17:36:07.370Z,23.30
2018-09-09T17:38:35.840Z,23.10
2018-09-09T17:41:04.333Z,23.10
2018-09-09T17:43:32.802Z,23.00
2018-09-09T17:46:01.277Z,22.90
2018-09-09T17:48:29.974Z,22.80
2018-09-09T17:50:58.497Z,22.80
2018-09-09T17:53:26.964Z,22.70
2018-09-09T17:55:55.574Z,22.60
2018-09-09T17:58:24.115Z,22.50
2018-09-09T18:00:52.570Z,22.40
2018-09-09T18:03:21.157Z,22.30
2018-09-09T18:05:49.706Z,22.20
2018-09-09T18:08:18.263Z,22.10
2018-09-09T18:10:46.714Z,22.00
2018-09-09T18:13:15.490Z,21.90
2018-09-09T18:15:44.043Z,21.80
2018-09-09T18:18:12.676Z,21.70
2018-09-09T18:20:41.632Z,21.60
2018-09-09T18:23:10.128Z,21.50
2018-09-09T18:25:38.570Z,21.50
2018-09-09T18:28:07.147Z,21.40
2018-09-09T18:30:35.743Z,21.30
2018-09-09T18:33:04.263Z,21.20
2018-09-09T18:35:32.774Z,21.10
2018-09-09T18:38:01.291Z,21.10
2018-09-09T18:40:29.822Z,21.20
2018-09-09T18:42:58.301Z,21.10
2018-09-09T18:45:26.832Z,21.10
2018-09-09T18:47:55.450Z,21.10
2018-09-09T18:50:24.145Z,21.10
2018-09-09T18:52:52.685Z,21.10
2018-09-09T18:55:21.565Z,21.10
2018-09-09T18:57:50.105Z,21.10
2018-09-09T19:00:18.659Z,21.20
2018-09-09T19:02:47.147Z,21.10
2018-09-09T19:05:15.762Z,21.10
2018-09-09T19:07:44.339Z,21.00
2018-09-09T19:10:12.884Z,21.00
2018-09-09T19:12:41.346Z,20.90
2018-09-09T19:15:09.961Z,20.90
2018-09-09T19:17:38.531Z,20.90
2018-09-09T19:20:07.168Z,20.90
2018-09-09T19:22:35.632Z,20.90
2018-09-09T19:25:04.161Z,20.90
2018-09-09T19:27:32.617Z,20.80
2018-09-09T19:30:01.078Z,20.80
2018-09-09T19:32:29.590Z,20.80
2018-09-09T19:34:58.106Z,20.80
2018-09-09T19:37:26.598Z,20.80
2018-09-09T19:39:55.075Z,20.70
2018-09-09T19:42:23.591Z,20.70
2018-09-09T19:44:52.099Z,20.70
2018-09-09T19:47:20.559Z,20.60
2018-09-09T19:49:49.246Z,20.60
2018-09-09T19:52:17.803Z,20.50
2018-09-09T19:54:46.243Z,20.50
2018-09-09T19:57:14.782Z,20.50
2018-09-09T19:59:43.258Z,20.40
2018-09-09T20:02:11.805Z,20.40
2018-09-09T20:04:40.383Z,20.30
2018-09-09T20:07:08.794Z,20.30
2018-09-09T20:09:37.277Z,20.30
2018-09-09T20:12:05.733Z,20.20
2018-09-09T20:14:34.208Z,20.20
2018-09-09T20:17:02.668Z,20.20
2018-09-09T20:19:31.198Z,20.20
2018-09-09T20:21:59.658Z,20.20
2018-09-09T20:24:28.234Z,20.20
2018-09-09T20:26:56.753Z,20.20
2018-09-09T20:29:25.203Z,20.20
2018-09-09T20:31:53.694Z,20.20
2018-09-09T20:34:22.154Z,20.20
2018-09-09T20:36:50.585Z,20.20
2018-09-09T20:39:19.404Z,20.20
2018-09-09T20:41:47.866Z,20.20
2018-09-09T20:44:16.341Z,20.20
2018-09-09T20:46:44.910Z,20.10
2018-09-09T20:49:13.410Z,20.10
2018-09-09T20:51:41.970Z,20.10
2018-09-09T20:54:10.410Z,20.10
2018-09-09T20:56:38.952Z,20.10
2018-09-09T20:59:07.401Z,20.00
2018-09-09T21:01:35.916Z,20.00
2018-09-09T21:04:04.532Z,20.00
2018-09-09T21:06:33.090Z,20.00
2018-09-09T21:09:01.650Z,20.00
2018-09-09T21:11:30.113Z,20.00
2018-09-09T21:13:58.534Z,19.90
2018-09-09T21:16:27.097Z,19.90
2018-09-09T21:18:55.557Z,19.90
2018-09-09T21:21:24.010Z,19.90
2018-09-09T21:23:52.430Z,19.90
2018-09-09T21:26:21.054Z,19.90
2018-09-09T21:28:49.581Z,19.80
2018-09-09T21:31:18.141Z,19.80
2018-09-09T21:33:46.706Z,19.70
2018-09-09T21:36:15.294Z,19.70
2018-09-09T21:38:43.841Z,19.60
2018-09-09T21:41:12.529Z,19.60
2018-09-09T21:43:41.039Z,19.60
2018-09-09T21:46:09.527Z,19.50
2018-09-09T21:48:37.991Z,19.50
2018-09-09T21:51:06.469Z,19.40
2018-09-09T21:53:34.915Z,19.40
2018-09-09T21:56:03.575Z,19.40
2018-09-09T21:58:32.006Z,19.30
2018-09-09T22:01:05.711Z,19.30
2018-09-09T22:03:34.168Z,19.30
2018-09-09T22:06:02.699Z,19.30
2018-09-09T22:08:31.284Z,19.20
2018-09-09T22:10:59.722Z,19.20
2018-09-09T22:13:28.203Z,19.20
2018-09-09T22:15:56.785Z,19.10
2018-09-09T22:18:25.437Z,19.10
2018-09-09T22:20:53.933Z,19.00
2018-09-09T22:23:22.386Z,18.90
2018-09-09T22:25:50.965Z,18.80
2018-09-09T22:28:19.468Z,18.80
2018-09-09T22:30:47.914Z,18.80
2018-09-09T22:33:16.340Z,18.70
2018-09-09T22:35:44.765Z,18.60
2018-09-09T22:38:13.332Z,18.60
2018-09-09T22:40:41.867Z,18.50
2018-09-09T22:43:10.278Z,18.40
2018-09-09T22:45:40.998Z,18.40
2018-09-09T22:48:10.278Z,18.40
2018-09-09T22:50:38.834Z,18.40
2018-09-09T22:53:07.361Z,18.40
2018-09-09T22:55:35.854Z,18.40
2018-09-09T22:58:04.333Z,18.40
2018-09-09T23:00:32.808Z,18.30
2018-09-09T23:03:01.352Z,18.30
2018-09-09T23:05:29.818Z,18.20
2018-09-09T23:07:58.562Z,18.20
2018-09-09T23:10:27.038Z,18.20
2018-09-09T23:12:55.592Z,18.20
2018-09-09T23:15:28.103Z,18.20
2018-09-09T23:17:56.582Z,18.20
2018-09-09T23:20:25.148Z,18.10
2018-09-09T23:22:53.857Z,18.20
2018-09-09T23:25:22.876Z,18.10
2018-09-09T23:27:51.708Z,18.10
2018-09-09T23:30:20.197Z,18.00
2018-09-09T23:32:48.880Z,17.90
2018-09-09T23:35:17.310Z,17.90
2018-09-09T23:37:45.887Z,17.90
2018-09-09T23:40:14.381Z,17.80
2018-09-09T23:42:42.820Z,17.70
2018-09-09T23:45:11.294Z,17.70
2018-09-09T23:47:39.712Z,17.70
2018-09-09T23:50:08.299Z,17.70
2018-09-09T23:52:36.750Z,17.70
2018-09-09T23:55:05.920Z,17.70
2018-09-09T23:57:34.434Z,17.60
